sensor_id;sensor_type;location;lat;lon;timestamp;pressure;altitude;pressure_sealevel;temperature;humidity
692;BME280;70475;50.084;8.576;2023-07-24T00:02:01;99847.22;;;20.69;65.26
692;BME280;70475;50.084;8.576;2023-07-24T00:04:31;99848.00;;;20.70;65.21
692;BME280;70475;50.084;8.576;2023-07-24T00:06:59;99840.47;;;20.77;64.59
692;BME280;70475;50.084;8.576;2023-07-24T00:09:27;99844.22;;;20.66;65.22
692;BME280;70475;50.084;8.576;2023-07-24T00:11:55;99846.66;;;20.57;64.85
692;BME280;70475;50.084;8.576;2023-07-24T00:14:22;99847.16;;;20.59;64.72
692;BME280;70475;50.084;8.576;2023-07-24T00:16:50;99843.16;;;20.77;63.87
692;BME280;70475;50.084;8.576;2023-07-24T00:19:17;99840.72;;;20.75;63.68
692;BME280;70475;50.084;8.576;2023-07-24T00:21:47;99833.94;;;20.63;63.99
692;BME280;70475;50.084;8.576;2023-07-24T00:24:14;99826.34;;;20.50;64.67
692;BME280;70475;50.084;8.576;2023-07-24T00:26:42;99829.06;;;20.65;64.55
692;BME280;70475;50.084;8.576;2023-07-24T00:29:09;99821.22;;;20.63;64.33
692;BME280;70475;50.084;8.576;2023-07-24T00:31:37;99820.66;;;20.51;64.89
692;BME280;70475;50.084;8.576;2023-07-24T00:34:04;99824.72;;;20.49;64.84
692;BME280;70475;50.084;8.576;2023-07-24T00:36:32;99814.13;;;20.37;65.44
692;BME280;70475;50.084;8.576;2023-07-24T00:39:01;99818.75;;;20.37;65.52
692;BME280;70475;50.084;8.576;2023-07-24T00:41:28;99817.63;;;20.32;65.59
692;BME280;70475;50.084;8.576;2023-07-24T00:43:56;99824.94;;;20.32;65.53
692;BME280;70475;50.084;8.576;2023-07-24T00:46:24;99824.94;;;20.32;65.83
692;BME280;70475;50.084;8.576;2023-07-24T00:48:52;99824.13;;;20.31;65.97
692;BME280;70475;50.084;8.576;2023-07-24T00:51:20;99825.75;;;20.32;65.87
692;BME280;70475;50.084;8.576;2023-07-24T00:53:48;99823.06;;;20.38;65.81
692;BME280;70475;50.084;8.576;2023-07-24T00:56:17;99820.34;;;20.32;66.12
692;BME280;70475;50.084;8.576;2023-07-24T00:58:44;99811.69;;;20.30;66.48
692;BME280;70475;50.084;8.576;2023-07-24T01:01:12;99811.41;;;20.37;65.85
692;BME280;70475;50.084;8.576;2023-07-24T01:03:39;99814.69;;;20.39;65.95
692;BME280;70475;50.084;8.576;2023-07-24T01:06:07;99813.59;;;20.35;66.58
692;BME280;70475;50.084;8.576;2023-07-24T01:08:34;99810.06;;;20.34;66.54
692;BME280;70475;50.084;8.576;2023-07-24T01:11:06;99811.69;;;20.30;66.83
692;BME280;70475;50.084;8.576;2023-07-24T01:13:42;99813.06;;;20.38;66.69
692;BME280;70475;50.084;8.576;2023-07-24T01:16:14;99810.09;;;20.40;66.77
692;BME280;70475;50.084;8.576;2023-07-24T01:18:43;99800.34;;;20.33;67.06
692;BME280;70475;50.084;8.576;2023-07-24T01:21:15;99799.78;;;20.21;67.37
692;BME280;70475;50.084;8.576;2023-07-24T01:23:48;99789.22;;;20.20;67.19
692;BME280;70475;50.084;8.576;2023-07-24T01:26:20;99786.78;;;20.18;67.28
692;BME280;70475;50.084;8.576;2023-07-24T01:28:50;99784.63;;;20.15;67.41
692;BME280;70475;50.084;8.576;2023-07-24T01:31:17;99785.66;;;20.09;67.32
692;BME280;70475;50.084;8.576;2023-07-24T01:33:45;99784.06;;;20.13;67.15
692;BME280;70475;50.084;8.576;2023-07-24T01:36:13;99779.69;;;20.07;67.52
692;BME280;70475;50.084;8.576;2023-07-24T01:38:41;99778.13;;;20.21;66.86
692;BME280;70475;50.084;8.576;2023-07-24T01:41:09;99772.44;;;20.13;67.44
692;BME280;70475;50.084;8.576;2023-07-24T01:43:38;99779.94;;;20.06;67.61
692;BME280;70475;50.084;8.576;2023-07-24T01:46:06;99771.84;;;20.01;67.69
692;BME280;70475;50.084;8.576;2023-07-24T01:48:34;99762.09;;;19.95;68.08
692;BME280;70475;50.084;8.576;2023-07-24T01:51:02;99760.22;;;20.00;67.87
692;BME280;70475;50.084;8.576;2023-07-24T01:53:30;99766.16;;;19.92;68.20
692;BME280;70475;50.084;8.576;2023-07-24T01:55:58;99763.97;;;19.89;68.52
692;BME280;70475;50.084;8.576;2023-07-24T01:58:25;99764.50;;;19.91;68.28
692;BME280;70475;50.084;8.576;2023-07-24T02:00:56;99754.28;;;19.98;68.26
692;BME280;70475;50.084;8.576;2023-07-24T02:03:23;99758.03;;;19.97;68.31
692;BME280;70475;50.084;8.576;2023-07-24T02:05:51;99743.41;;;19.88;68.74
692;BME280;70475;50.084;8.576;2023-07-24T02:08:19;99740.44;;;19.90;68.89
692;BME280;70475;50.084;8.576;2023-07-24T02:10:48;99736.16;;;19.94;68.69
692;BME280;70475;50.084;8.576;2023-07-24T02:13:15;99718.03;;;20.04;68.61
692;BME280;70475;50.084;8.576;2023-07-24T02:15:43;99713.47;;;20.10;68.04
692;BME280;70475;50.084;8.576;2023-07-24T02:18:12;99698.31;;;20.04;68.21
692;BME280;70475;50.084;8.576;2023-07-24T02:20:39;99692.66;;;20.05;68.02
692;BME280;70475;50.084;8.576;2023-07-24T02:23:08;99682.09;;;19.94;68.27
692;BME280;70475;50.084;8.576;2023-07-24T02:25:36;99682.88;;;19.84;68.60
692;BME280;70475;50.084;8.576;2023-07-24T02:28:03;99693.13;;;19.82;68.83
692;BME280;70475;50.084;8.576;2023-07-24T02:30:31;99698.25;;;19.84;68.92
692;BME280;70475;50.084;8.576;2023-07-24T02:32:58;99703.94;;;19.77;69.65
692;BME280;70475;50.084;8.576;2023-07-24T02:35:27;99718.47;;;19.66;70.18
692;BME280;70475;50.084;8.576;2023-07-24T02:37:55;99725.00;;;19.70;70.04
692;BME280;70475;50.084;8.576;2023-07-24T02:40:22;99729.56;;;19.65;70.51
692;BME280;70475;50.084;8.576;2023-07-24T02:42:50;99727.66;;;19.60;70.83
692;BME280;70475;50.084;8.576;2023-07-24T02:45:18;99717.97;;;19.64;70.22
692;BME280;70475;50.084;8.576;2023-07-24T02:47:45;99719.31;;;19.67;70.28
692;BME280;70475;50.084;8.576;2023-07-24T02:50:13;99720.38;;;19.71;70.03
692;BME280;70475;50.084;8.576;2023-07-24T02:52:42;99724.94;;;19.60;70.76
692;BME280;70475;50.084;8.576;2023-07-24T02:55:09;99728.44;;;19.51;71.23
692;BME280;70475;50.084;8.576;2023-07-24T02:57:37;99731.69;;;19.58;70.67
692;BME280;70475;50.084;8.576;2023-07-24T03:00:07;99738.72;;;19.59;70.46
692;BME280;70475;50.084;8.576;2023-07-24T03:02:34;99737.91;;;19.63;70.08
692;BME280;70475;50.084;8.576;2023-07-24T03:05:02;99730.91;;;19.62;70.55
692;BME280;70475;50.084;8.576;2023-07-24T03:07:31;99744.13;;;19.54;70.78
692;BME280;70475;50.084;8.576;2023-07-24T03:10:00;99738.13;;;19.42;71.56
692;BME280;70475;50.084;8.576;2023-07-24T03:12:27;99736.75;;;19.39;71.15
692;BME280;70475;50.084;8.576;2023-07-24T03:14:55;99743.22;;;19.38;70.50
692;BME280;70475;50.084;8.576;2023-07-24T03:17:22;99735.56;;;19.25;70.71
692;BME280;70475;50.084;8.576;2023-07-24T03:19:50;99727.47;;;19.25;70.86
692;BME280;70475;50.084;8.576;2023-07-24T03:22:17;99709.50;;;19.41;69.47
692;BME280;70475;50.084;8.576;2023-07-24T03:24:45;99692.16;;;19.37;69.16
692;BME280;70475;50.084;8.576;2023-07-24T03:27:14;99708.63;;;19.30;69.27
692;BME280;70475;50.084;8.576;2023-07-24T03:29:42;99717.19;;;19.17;69.49
692;BME280;70475;50.084;8.576;2023-07-24T03:32:09;99721.97;;;19.05;69.79
692;BME280;70475;50.084;8.576;2023-07-24T03:34:37;99716.63;;;19.15;69.59
692;BME280;70475;50.084;8.576;2023-07-24T03:37:05;99701.00;;;19.22;69.50
692;BME280;70475;50.084;8.576;2023-07-24T03:39:33;99694.19;;;19.10;69.22
692;BME280;70475;50.084;8.576;2023-07-24T03:42:01;99682.31;;;19.11;69.21
692;BME280;70475;50.084;8.576;2023-07-24T03:44:30;99672.59;;;19.15;69.22
692;BME280;70475;50.084;8.576;2023-07-24T03:46:58;99672.03;;;19.08;68.92
692;BME280;70475;50.084;8.576;2023-07-24T03:49:26;99669.34;;;19.08;69.24
692;BME280;70475;50.084;8.576;2023-07-24T03:51:53;99657.41;;;18.99;69.92
692;BME280;70475;50.084;8.576;2023-07-24T03:54:21;99655.53;;;19.04;69.64
692;BME280;70475;50.084;8.576;2023-07-24T03:56:48;99653.09;;;19.03;70.02
692;BME280;70475;50.084;8.576;2023-07-24T03:59:16;99643.13;;;18.98;70.10
692;BME280;70475;50.084;8.576;2023-07-24T04:01:45;99639.34;;;19.04;69.78
692;BME280;70475;50.084;8.576;2023-07-24T04:04:12;99628.84;;;19.08;69.52
692;BME280;70475;50.084;8.576;2023-07-24T04:06:40;99623.94;;;19.00;70.05
692;BME280;70475;50.084;8.576;2023-07-24T04:09:07;99636.34;;;18.96;69.84
692;BME280;70475;50.084;8.576;2023-07-24T04:11:37;99639.03;;;18.96;69.96
692;BME280;70475;50.084;8.576;2023-07-24T04:14:05;99649.56;;;18.97;70.05
692;BME280;70475;50.084;8.576;2023-07-24T04:16:33;99662.53;;;19.00;70.16
692;BME280;70475;50.084;8.576;2023-07-24T04:19:03;99660.97;;;19.09;69.97
692;BME280;70475;50.084;8.576;2023-07-24T04:21:30;99665.31;;;19.15;70.10
692;BME280;70475;50.084;8.576;2023-07-24T04:23:58;99654.06;;;19.28;69.85
692;BME280;70475;50.084;8.576;2023-07-24T04:26:26;99651.81;;;19.15;70.43
692;BME280;70475;50.084;8.576;2023-07-24T04:28:54;99658.00;;;19.11;70.44
692;BME280;70475;50.084;8.576;2023-07-24T04:31:21;99669.06;;;19.09;70.70
692;BME280;70475;50.084;8.576;2023-07-24T04:33:49;99676.59;;;19.07;70.90
692;BME280;70475;50.084;8.576;2023-07-24T04:36:18;99678.25;;;19.08;71.06
692;BME280;70475;50.084;8.576;2023-07-24T04:38:45;99671.25;;;19.12;70.97
692;BME280;70475;50.084;8.576;2023-07-24T04:41:13;99674.47;;;19.09;70.54
692;BME280;70475;50.084;8.576;2023-07-24T04:43:41;99673.16;;;19.17;71.09
692;BME280;70475;50.084;8.576;2023-07-24T04:46:08;99676.41;;;19.19;70.74
692;BME280;70475;50.084;8.576;2023-07-24T04:48:36;99667.00;;;19.26;70.68
692;BME280;70475;50.084;8.576;2023-07-24T04:51:04;99673.19;;;19.22;70.56
692;BME280;70475;50.084;8.576;2023-07-24T04:53:32;99687.56;;;19.32;69.86
692;BME280;70475;50.084;8.576;2023-07-24T04:56:00;99702.44;;;19.35;69.80
692;BME280;70475;50.084;8.576;2023-07-24T04:58:27;99671.91;;;19.34;70.52
692;BME280;70475;50.084;8.576;2023-07-24T05:00:55;99681.66;;;19.40;68.85
692;BME280;70475;50.084;8.576;2023-07-24T05:03:31;99681.63;;;19.35;69.45
692;BME280;70475;50.084;8.576;2023-07-24T05:05:58;99678.94;;;19.35;68.90
692;BME280;70475;50.084;8.576;2023-07-24T05:08:26;99655.25;;;19.52;69.24
692;BME280;70475;50.084;8.576;2023-07-24T05:10:55;99672.50;;;19.51;69.39
692;BME280;70475;50.084;8.576;2023-07-24T05:13:23;99668.19;;;19.50;69.60
692;BME280;70475;50.084;8.576;2023-07-24T05:15:51;99674.69;;;19.49;68.93
692;BME280;70475;50.084;8.576;2023-07-24T05:18:18;99690.88;;;19.49;68.69
692;BME280;70475;50.084;8.576;2023-07-24T05:20:47;99686.81;;;19.42;68.98
692;BME280;70475;50.084;8.576;2023-07-24T05:23:17;99680.84;;;19.35;69.20
692;BME280;70475;50.084;8.576;2023-07-24T05:25:45;99685.44;;;19.44;68.91
692;BME280;70475;50.084;8.576;2023-07-24T05:28:13;99677.91;;;19.46;68.87
692;BME280;70475;50.084;8.576;2023-07-24T05:30:41;99689.22;;;19.38;69.15
692;BME280;70475;50.084;8.576;2023-07-24T05:33:09;99693.06;;;19.57;68.77
692;BME280;70475;50.084;8.576;2023-07-24T05:35:36;99680.66;;;19.66;68.66
692;BME280;70475;50.084;8.576;2023-07-24T05:38:04;99675.00;;;19.73;68.93
692;BME280;70475;50.084;8.576;2023-07-24T05:40:31;99666.09;;;19.77;69.16
692;BME280;70475;50.084;8.576;2023-07-24T05:42:59;99657.19;;;19.82;68.47
692;BME280;70475;50.084;8.576;2023-07-24T05:45:28;99650.19;;;19.91;68.52
692;BME280;70475;50.084;8.576;2023-07-24T05:47:55;99660.75;;;20.02;68.26
692;BME280;70475;50.084;8.576;2023-07-24T05:50:23;99661.53;;;20.03;68.66
692;BME280;70475;50.084;8.576;2023-07-24T05:52:50;99672.06;;;20.04;68.80
692;BME280;70475;50.084;8.576;2023-07-24T05:55:18;99659.41;;;20.10;67.47
692;BME280;70475;50.084;8.576;2023-07-24T05:57:45;99665.66;;;20.20;66.92
692;BME280;70475;50.084;8.576;2023-07-24T06:00:13;99657.81;;;20.19;67.01
692;BME280;70475;50.084;8.576;2023-07-24T06:02:42;99657.53;;;20.25;67.32
692;BME280;70475;50.084;8.576;2023-07-24T06:05:10;99644.00;;;20.30;67.27
692;BME280;70475;50.084;8.576;2023-07-24T06:07:37;99655.09;;;20.29;68.25
692;BME280;70475;50.084;8.576;2023-07-24T06:10:06;99658.34;;;20.36;68.11
692;BME280;70475;50.084;8.576;2023-07-24T06:12:33;99663.50;;;20.43;68.26
692;BME280;70475;50.084;8.576;2023-07-24T06:15:01;99662.94;;;20.41;67.00
692;BME280;70475;50.084;8.576;2023-07-24T06:17:29;99665.09;;;20.38;67.41
692;BME280;70475;50.084;8.576;2023-07-24T06:19:58;99662.69;;;20.47;67.09
692;BME280;70475;50.084;8.576;2023-07-24T06:22:26;99658.06;;;20.53;67.54
692;BME280;70475;50.084;8.576;2023-07-24T06:24:53;99664.53;;;20.67;67.10
692;BME280;70475;50.084;8.576;2023-07-24T06:27:21;99658.88;;;20.63;65.50
692;BME280;70475;50.084;8.576;2023-07-24T06:29:49;99655.34;;;20.58;66.88
692;BME280;70475;50.084;8.576;2023-07-24T06:32:21;99665.59;;;20.76;65.57
692;BME280;70475;50.084;8.576;2023-07-24T06:34:48;99654.22;;;20.79;66.85
692;BME280;70475;50.084;8.576;2023-07-24T06:37:17;99653.91;;;20.90;66.19
692;BME280;70475;50.084;8.576;2023-07-24T06:39:48;99649.88;;;21.03;66.98
692;BME280;70475;50.084;8.576;2023-07-24T06:42:16;99660.09;;;21.16;66.30
692;BME280;70475;50.084;8.576;2023-07-24T06:44:43;99656.28;;;21.27;65.22
692;BME280;70475;50.084;8.576;2023-07-24T06:47:11;99656.22;;;21.37;65.05
692;BME280;70475;50.084;8.576;2023-07-24T06:49:38;99658.38;;;21.40;64.76
692;BME280;70475;50.084;8.576;2023-07-24T06:52:06;99665.13;;;21.42;63.75
692;BME280;70475;50.084;8.576;2023-07-24T06:54:35;99668.91;;;21.46;63.64
692;BME280;70475;50.084;8.576;2023-07-24T06:57:03;99671.75;;;21.70;63.37
692;BME280;70475;50.084;8.576;2023-07-24T06:59:31;99667.91;;;21.86;63.04
692;BME280;70475;50.084;8.576;2023-07-24T07:01:58;99670.44;;;22.11;62.50
692;BME280;70475;50.084;8.576;2023-07-24T07:04:26;99670.22;;;22.36;61.61
692;BME280;70475;50.084;8.576;2023-07-24T07:06:53;99660.44;;;22.40;60.68
692;BME280;70475;50.084;8.576;2023-07-24T07:09:21;99656.44;;;22.66;60.37
692;BME280;70475;50.084;8.576;2023-07-24T07:11:50;99661.53;;;22.73;59.33
692;BME280;70475;50.084;8.576;2023-07-24T07:14:17;99661.06;;;22.89;58.84
692;BME280;70475;50.084;8.576;2023-07-24T07:16:45;99664.19;;;23.01;57.92
692;BME280;70475;50.084;8.576;2023-07-24T07:19:14;99661.91;;;23.13;57.72
692;BME280;70475;50.084;8.576;2023-07-24T07:21:41;99648.75;;;23.20;58.07
692;BME280;70475;50.084;8.576;2023-07-24T07:24:09;99649.19;;;23.32;57.04
692;BME280;70475;50.084;8.576;2023-07-24T07:26:36;99655.03;;;23.44;57.00
692;BME280;70475;50.084;8.576;2023-07-24T07:29:05;99641.13;;;23.46;55.82
692;BME280;70475;50.084;8.576;2023-07-24T07:31:33;99645.75;;;23.45;55.75
692;BME280;70475;50.084;8.576;2023-07-24T07:34:00;99650.56;;;23.53;55.88
692;BME280;70475;50.084;8.576;2023-07-24T07:36:28;99646.44;;;23.56;55.55
692;BME280;70475;50.084;8.576;2023-07-24T07:38:56;99644.53;;;23.56;55.58
692;BME280;70475;50.084;8.576;2023-07-24T07:41:23;99641.53;;;23.58;55.41
692;BME280;70475;50.084;8.576;2023-07-24T07:43:51;99638.88;;;23.71;55.65
692;BME280;70475;50.084;8.576;2023-07-24T07:46:20;99637.03;;;23.67;55.72
692;BME280;70475;50.084;8.576;2023-07-24T07:48:47;99623.66;;;23.70;55.79
692;BME280;70475;50.084;8.576;2023-07-24T07:51:15;99618.44;;;23.74;55.58
692;BME280;70475;50.084;8.576;2023-07-24T07:53:43;99614.31;;;23.76;55.86
692;BME280;70475;50.084;8.576;2023-07-24T07:56:10;99621.09;;;23.79;55.66
692;BME280;70475;50.084;8.576;2023-07-24T07:58:38;99618.69;;;23.77;54.79
692;BME280;70475;50.084;8.576;2023-07-24T08:01:06;99624.75;;;23.88;56.24
692;BME280;70475;50.084;8.576;2023-07-24T08:03:35;99628.50;;;23.92;56.33
692;BME280;70475;50.084;8.576;2023-07-24T08:06:03;99627.41;;;23.93;55.11
692;BME280;70475;50.084;8.576;2023-07-24T08:08:30;99624.53;;;23.84;54.38
692;BME280;70475;50.084;8.576;2023-07-24T08:10:58;99620.72;;;23.67;56.44
692;BME280;70475;50.084;8.576;2023-07-24T08:13:25;99612.19;;;23.73;55.88
692;BME280;70475;50.084;8.576;2023-07-24T08:15:53;99613.13;;;23.82;55.59
692;BME280;70475;50.084;8.576;2023-07-24T08:18:20;99605.41;;;23.89;55.49
692;BME280;70475;50.084;8.576;2023-07-24T08:20:49;99608.31;;;23.98;55.50
692;BME280;70475;50.084;8.576;2023-07-24T08:23:17;99593.53;;;24.04;55.08
692;BME280;70475;50.084;8.576;2023-07-24T08:25:51;99599.09;;;24.12;55.74
692;BME280;70475;50.084;8.576;2023-07-24T08:28:18;99601.41;;;24.05;55.14
692;BME280;70475;50.084;8.576;2023-07-24T08:30:50;99595.81;;;23.97;54.84
692;BME280;70475;50.084;8.576;2023-07-24T08:33:22;99605.72;;;24.06;54.79
692;BME280;70475;50.084;8.576;2023-07-24T08:36:00;99600.09;;;24.16;54.64
692;BME280;70475;50.084;8.576;2023-07-24T08:38:28;99602.31;;;24.14;54.27
692;BME280;70475;50.084;8.576;2023-07-24T08:41:03;99587.91;;;24.14;54.09
692;BME280;70475;50.084;8.576;2023-07-24T08:43:31;99585.53;;;24.26;55.01
692;BME280;70475;50.084;8.576;2023-07-24T08:46:00;99577.22;;;24.50;54.85
692;BME280;70475;50.084;8.576;2023-07-24T08:48:30;99581.84;;;24.63;54.39
692;BME280;70475;50.084;8.576;2023-07-24T08:51:01;99575.53;;;24.67;52.97
692;BME280;70475;50.084;8.576;2023-07-24T08:53:29;99583.19;;;24.79;53.36
692;BME280;70475;50.084;8.576;2023-07-24T08:55:59;99574.22;;;24.92;53.56
692;BME280;70475;50.084;8.576;2023-07-24T08:58:28;99576.03;;;25.10;54.16
692;BME280;70475;50.084;8.576;2023-07-24T09:00:56;99574.81;;;25.16;52.54
692;BME280;70475;50.084;8.576;2023-07-24T09:03:24;99579.34;;;25.20;52.31
692;BME280;70475;50.084;8.576;2023-07-24T09:05:52;99579.88;;;25.09;52.37
692;BME280;70475;50.084;8.576;2023-07-24T09:08:29;99582.16;;;25.29;52.39
692;BME280;70475;50.084;8.576;2023-07-24T09:10:57;99579.13;;;25.44;51.67
692;BME280;70475;50.084;8.576;2023-07-24T09:13:25;99582.47;;;25.41;51.54
692;BME280;70475;50.084;8.576;2023-07-24T09:15:53;99576.16;;;25.54;52.24
692;BME280;70475;50.084;8.576;2023-07-24T09:18:21;99566.06;;;25.54;51.12
692;BME280;70475;50.084;8.576;2023-07-24T09:20:49;99563.81;;;25.56;51.13
692;BME280;70475;50.084;8.576;2023-07-24T09:23:26;99554.25;;;25.59;52.41
692;BME280;70475;50.084;8.576;2023-07-24T09:25:55;99554.25;;;25.59;50.85
692;BME280;70475;50.084;8.576;2023-07-24T09:28:23;99548.06;;;25.53;51.19
692;BME280;70475;50.084;8.576;2023-07-24T09:30:52;99544.66;;;25.48;51.31
692;BME280;70475;50.084;8.576;2023-07-24T09:33:20;99526.94;;;25.23;51.13
692;BME280;70475;50.084;8.576;2023-07-24T09:35:57;99526.13;;;25.23;53.45
692;BME280;70475;50.084;8.576;2023-07-24T09:38:25;99518.47;;;25.25;53.05
692;BME280;70475;50.084;8.576;2023-07-24T09:40:55;99516.03;;;25.23;52.72
692;BME280;70475;50.084;8.576;2023-07-24T09:43:24;99510.59;;;25.23;53.07
692;BME280;70475;50.084;8.576;2023-07-24T09:46:05;99502.72;;;25.35;53.30
692;BME280;70475;50.084;8.576;2023-07-24T09:48:35;99511.56;;;25.41;52.87
692;BME280;70475;50.084;8.576;2023-07-24T09:51:25;99516.34;;;25.35;51.37
692;BME280;70475;50.084;8.576;2023-07-24T09:53:55;99516.97;;;25.54;51.62
692;BME280;70475;50.084;8.576;2023-07-24T09:56:25;99512.88;;;25.65;51.59
692;BME280;70475;50.084;8.576;2023-07-24T09:59:13;99497.66;;;25.95;51.56
692;BME280;70475;50.084;8.576;2023-07-24T10:01:41;99495.31;;;26.02;50.72
692;BME280;70475;50.084;8.576;2023-07-24T10:04:09;99512.19;;;25.82;49.64
692;BME280;70475;50.084;8.576;2023-07-24T10:06:37;99520.28;;;25.87;49.92
692;BME280;70475;50.084;8.576;2023-07-24T10:09:05;99513.97;;;26.00;49.93
692;BME280;70475;50.084;8.576;2023-07-24T10:11:35;99505.84;;;26.17;49.44
692;BME280;70475;50.084;8.576;2023-07-24T10:14:03;99525.91;;;26.43;50.04
692;BME280;70475;50.084;8.576;2023-07-24T10:16:32;99523.88;;;26.57;48.32
692;BME280;70475;50.084;8.576;2023-07-24T10:19:00;99526.50;;;26.62;48.74
692;BME280;70475;50.084;8.576;2023-07-24T10:21:27;99517.84;;;26.38;48.08
692;BME280;70475;50.084;8.576;2023-07-24T10:23:59;99528.53;;;26.26;48.76
692;BME280;70475;50.084;8.576;2023-07-24T10:26:27;99524.09;;;26.08;48.87
692;BME280;70475;50.084;8.576;2023-07-24T10:28:56;99538.13;;;26.15;48.70
692;BME280;70475;50.084;8.576;2023-07-24T10:31:25;99527.22;;;26.15;46.66
692;BME280;70475;50.084;8.576;2023-07-24T10:33:54;99525.59;;;25.92;46.52
692;BME280;70475;50.084;8.576;2023-07-24T10:36:23;99528.16;;;25.88;45.59
692;BME280;70475;50.084;8.576;2023-07-24T10:38:52;99528.00;;;25.93;46.90
692;BME280;70475;50.084;8.576;2023-07-24T10:41:20;99534.25;;;26.08;46.69
692;BME280;70475;50.084;8.576;2023-07-24T10:43:49;99525.44;;;26.11;45.94
692;BME280;70475;50.084;8.576;2023-07-24T10:46:20;99533.78;;;26.14;44.69
692;BME280;70475;50.084;8.576;2023-07-24T10:48:50;99532.53;;;26.20;45.57
692;BME280;70475;50.084;8.576;2023-07-24T10:51:18;99513.75;;;26.27;46.14
692;BME280;70475;50.084;8.576;2023-07-24T10:53:47;99525.84;;;26.35;45.95
692;BME280;70475;50.084;8.576;2023-07-24T10:56:16;99520.78;;;26.42;45.71
692;BME280;70475;50.084;8.576;2023-07-24T10:58:44;99507.84;;;26.25;45.58
692;BME280;70475;50.084;8.576;2023-07-24T11:01:11;99507.97;;;26.20;46.16
692;BME280;70475;50.084;8.576;2023-07-24T11:03:42;99499.34;;;26.35;46.63
692;BME280;70475;50.084;8.576;2023-07-24T11:06:13;99511.81;;;26.19;47.23
692;BME280;70475;50.084;8.576;2023-07-24T11:08:41;99499.91;;;26.15;47.60
692;BME280;70475;50.084;8.576;2023-07-24T11:11:09;99508.50;;;26.00;47.45
692;BME280;70475;50.084;8.576;2023-07-24T11:13:38;99508.50;;;26.00;47.78
692;BME280;70475;50.084;8.576;2023-07-24T11:16:07;99506.13;;;25.85;47.95
692;BME280;70475;50.084;8.576;2023-07-24T11:18:45;99502.88;;;25.83;48.27
692;BME280;70475;50.084;8.576;2023-07-24T11:21:20;99484.25;;;25.98;48.39
692;BME280;70475;50.084;8.576;2023-07-24T11:23:48;99490.25;;;25.87;47.93
692;BME280;70475;50.084;8.576;2023-07-24T11:26:18;99493.03;;;25.95;48.58
692;BME280;70475;50.084;8.576;2023-07-24T11:28:46;99489.50;;;25.95;48.47
692;BME280;70475;50.084;8.576;2023-07-24T11:31:14;99488.78;;;25.81;48.54
692;BME280;70475;50.084;8.576;2023-07-24T11:33:44;99483.75;;;25.74;48.46
692;BME280;70475;50.084;8.576;2023-07-24T11:36:12;99478.56;;;25.95;48.36
692;BME280;70475;50.084;8.576;2023-07-24T11:38:40;99464.41;;;25.93;48.48
692;BME280;70475;50.084;8.576;2023-07-24T11:41:08;99471.16;;;26.09;48.84
692;BME280;70475;50.084;8.576;2023-07-24T11:43:45;99470.53;;;26.12;47.49
692;BME280;70475;50.084;8.576;2023-07-24T11:46:22;99473.59;;;26.19;47.93
692;BME280;70475;50.084;8.576;2023-07-24T11:48:51;99467.00;;;26.20;47.58
692;BME280;70475;50.084;8.576;2023-07-24T11:51:22;99473.25;;;26.12;46.71
692;BME280;70475;50.084;8.576;2023-07-24T11:53:50;99450.25;;;26.04;46.85
692;BME280;70475;50.084;8.576;2023-07-24T11:56:19;99456.44;;;25.96;47.00
692;BME280;70475;50.084;8.576;2023-07-24T11:58:48;99439.78;;;25.98;46.41
692;BME280;70475;50.084;8.576;2023-07-24T12:01:15;99443.59;;;25.97;47.06
692;BME280;70475;50.084;8.576;2023-07-24T12:03:43;99445.72;;;26.00;47.40
692;BME280;70475;50.084;8.576;2023-07-24T12:06:15;99445.41;;;26.01;46.52
692;BME280;70475;50.084;8.576;2023-07-24T12:08:44;99444.00;;;26.13;46.59
692;BME280;70475;50.084;8.576;2023-07-24T12:11:18;99436.16;;;26.20;46.66
692;BME280;70475;50.084;8.576;2023-07-24T12:13:45;99425.72;;;26.13;46.75
692;BME280;70475;50.084;8.576;2023-07-24T12:16:13;99418.03;;;26.15;47.32
692;BME280;70475;50.084;8.576;2023-07-24T12:18:41;99416.50;;;26.48;46.13
692;BME280;70475;50.084;8.576;2023-07-24T12:21:08;99395.06;;;26.72;46.33
692;BME280;70475;50.084;8.576;2023-07-24T12:23:37;99404.22;;;26.76;45.42
692;BME280;70475;50.084;8.576;2023-07-24T12:26:06;99399.25;;;26.78;45.05
692;BME280;70475;50.084;8.576;2023-07-24T12:28:33;99393.31;;;27.02;45.25
692;BME280;70475;50.084;8.576;2023-07-24T12:31:01;99397.81;;;27.32;45.48
692;BME280;70475;50.084;8.576;2023-07-24T12:33:30;99385.69;;;27.58;44.02
692;BME280;70475;50.084;8.576;2023-07-24T12:35:57;99390.22;;;27.46;43.95
692;BME280;70475;50.084;8.576;2023-07-24T12:38:25;99393.72;;;27.63;44.39
692;BME280;70475;50.084;8.576;2023-07-24T12:40:54;99390.53;;;27.53;43.08
692;BME280;70475;50.084;8.576;2023-07-24T12:43:21;99372.22;;;27.36;43.70
692;BME280;70475;50.084;8.576;2023-07-24T12:45:49;99390.72;;;27.31;43.76
692;BME280;70475;50.084;8.576;2023-07-24T12:48:16;99399.09;;;27.26;43.80
692;BME280;70475;50.084;8.576;2023-07-24T12:50:44;99392.03;;;27.42;44.00
692;BME280;70475;50.084;8.576;2023-07-24T12:53:12;99401.19;;;27.37;43.83
692;BME280;70475;50.084;8.576;2023-07-24T12:55:47;99403.28;;;27.32;43.65
692;BME280;70475;50.084;8.576;2023-07-24T12:58:15;99391.38;;;27.19;43.38
692;BME280;70475;50.084;8.576;2023-07-24T13:00:43;99404.72;;;27.12;44.35
692;BME280;70475;50.084;8.576;2023-07-24T13:03:11;99393.13;;;26.98;44.28
692;BME280;70475;50.084;8.576;2023-07-24T13:05:38;99384.94;;;26.90;44.56
692;BME280;70475;50.084;8.576;2023-07-24T13:08:06;99377.03;;;26.71;44.87
692;BME280;70475;50.084;8.576;2023-07-24T13:10:34;99377.38;;;26.87;45.17
692;BME280;70475;50.084;8.576;2023-07-24T13:13:01;99360.81;;;26.75;45.37
692;BME280;70475;50.084;8.576;2023-07-24T13:15:30;99357.91;;;26.71;45.47
692;BME280;70475;50.084;8.576;2023-07-24T13:17:58;99353.69;;;26.48;46.16
692;BME280;70475;50.084;8.576;2023-07-24T13:20:43;99350.00;;;26.44;46.29
692;BME280;70475;50.084;8.576;2023-07-24T13:23:10;99342.44;;;26.33;46.75
692;BME280;70475;50.084;8.576;2023-07-24T13:25:38;99341.78;;;26.36;46.87
692;BME280;70475;50.084;8.576;2023-07-24T13:28:06;99342.25;;;26.21;47.38
692;BME280;70475;50.084;8.576;2023-07-24T13:30:34;99346.06;;;26.11;47.52